Time;durP1;ratioP1;P1;durP2;ratioP2;P2;SDS_P1;SDS_P2;PMS_P1;PMS_P2;Temp;Humidity;BMP_temperature;BMP_pressure;BME280_temperature;BME280_humidity;BME280_pressure;Samples;Min_cycle;Max_cycle;Signal;HPM_P1;HPM_P2
2023/08/23 00:00:32;;;;;;;7.32;4.35;;;;;;;23.12;67.63;97005.50;6215595;23;20047;-74
2023/08/23 00:03:00;;;;;;;4.72;4.32;;;;;;;23.08;68.12;97007.84;6215461;23;20032;-74
2023/08/23 00:05:27;;;;;;;5.03;4.43;;;;;;;23.00;67.28;97000.31;6215998;23;20390;-74
2023/08/23 00:07:56;;;;;;;6.40;4.30;;;;;;;22.94;67.34;96999.44;6215905;23;20032;-73
2023/08/23 00:10:24;;;;;;;7.63;4.95;;;;;;;22.90;67.16;96997.53;6215849;23;20028;-74
2023/08/23 00:12:53;;;;;;;8.60;4.95;;;;;;;22.85;69.01;96992.97;6215535;23;20028;-74
2023/08/23 00:15:21;;;;;;;7.22;4.50;;;;;;;22.80;67.50;96995.56;6215709;23;20016;-74
2023/08/23 00:17:48;;;;;;;5.85;4.53;;;;;;;22.77;67.65;96990.75;6215898;23;20082;-74
2023/08/23 00:20:16;;;;;;;7.93;4.18;;;;;;;22.73;67.74;96989.63;6215754;23;20411;-74
2023/08/23 00:22:44;;;;;;;5.15;4.63;;;;;;;22.68;68.33;96987.72;6223756;23;20020;-74
2023/08/23 00:25:13;;;;;;;4.32;3.90;;;;;;;22.63;68.31;96988.47;6219977;23;20020;-74
2023/08/23 00:27:41;;;;;;;8.40;4.93;;;;;;;22.61;68.86;96997.75;6215807;23;20402;-74
2023/08/23 00:30:09;;;;;;;7.18;4.38;;;;;;;22.58;69.45;96999.03;6215784;23;20029;-74
2023/08/23 00:32:37;;;;;;;7.78;4.80;;;;;;;22.57;68.65;96999.31;6215405;23;20328;-73
2023/08/23 00:35:05;;;;;;;6.47;4.90;;;;;;;22.56;68.76;97001.13;6215638;23;20020;-74
2023/08/23 00:37:33;;;;;;;7.95;4.47;;;;;;;22.54;67.89;97000.63;6216244;23;20047;-74
2023/08/23 00:40:01;;;;;;;5.22;4.68;;;;;;;22.50;68.28;96994.19;6215710;23;20024;-74
2023/08/23 00:42:33;;;;;;;5.97;4.45;;;;;;;22.48;67.97;96998.13;6215207;23;20032;-74
2023/08/23 00:45:00;;;;;;;7.25;4.93;;;;;;;22.45;68.92;96988.78;6215187;23;20023;-73
2023/08/23 00:47:28;;;;;;;5.13;4.50;;;;;;;22.43;68.46;96993.53;6215542;23;20467;-74
2023/08/23 00:49:57;;;;;;;10.23;5.43;;;;;;;22.40;69.31;96996.72;6231505;23;20047;-73
2023/08/23 00:52:25;;;;;;;6.10;4.75;;;;;;;22.38;70.17;96996.16;6227514;23;20024;-73
2023/08/23 00:54:58;;;;;;;7.57;5.53;;;;;;;22.37;70.28;96992.69;6215721;23;20099;-74
2023/08/23 00:57:26;;;;;;;6.18;4.32;;;;;;;22.37;71.12;96999.88;6215840;23;20020;-74
2023/08/23 00:59:55;;;;;;;8.27;5.28;;;;;;;22.34;69.48;96997.69;6215289;23;20078;-73
2023/08/23 01:02:23;;;;;;;10.25;4.43;;;;;;;22.34;69.63;96995.03;6215699;23;20083;-74
2023/08/23 01:04:50;;;;;;;7.28;5.00;;;;;;;22.33;69.93;96996.09;6215634;23;20020;-74
2023/08/23 01:07:28;;;;;;;5.50;5.00;;;;;;;22.29;70.10;96995.78;6215163;23;20417;-74
2023/08/23 01:10:02;;;;;;;4.97;4.22;;;;;;;22.27;69.86;96989.09;6215454;23;20024;-73
2023/08/23 01:12:37;;;;;;;4.90;4.35;;;;;;;22.23;70.13;96983.47;6215196;23;20051;-73
2023/08/23 01:15:11;;;;;;;5.38;4.78;;;;;;;22.19;69.10;96977.84;6215315;23;20021;-73
2023/08/23 01:17:41;;;;;;;7.05;5.13;;;;;;;22.17;69.34;96976.47;6215518;23;20031;-74
2023/08/23 01:20:11;;;;;;;5.78;4.68;;;;;;;22.13;69.80;96976.16;6215356;23;20024;-73
2023/08/23 01:22:41;;;;;;;7.95;4.68;;;;;;;22.11;70.18;96978.25;6214983;23;20082;-74
2023/08/23 01:25:10;;;;;;;6.97;4.60;;;;;;;22.09;69.88;96985.66;6215353;23;20039;-74
2023/08/23 01:27:37;;;;;;;5.82;4.53;;;;;;;22.08;70.75;96984.03;6215338;23;20079;-74
2023/08/23 01:30:24;;;;;;;5.80;4.63;;;;;;;22.09;70.92;96993.63;6215379;23;20236;-74
2023/08/23 01:32:59;;;;;;;9.40;4.88;;;;;;;22.04;70.44;96982.97;6214741;23;20051;-74
2023/08/23 01:35:33;;;;;;;6.50;4.72;;;;;;;22.01;69.61;96994.84;6215165;23;20027;-74
2023/08/23 01:38:02;;;;;;;7.85;4.65;;;;;;;22.00;69.11;96997.78;6214967;23;20478;-73
2023/08/23 01:40:31;;;;;;;6.47;4.82;;;;;;;21.98;69.18;96995.34;6214813;23;20402;-74
2023/08/23 01:42:59;;;;;;;7.97;4.85;;;;;;;21.95;69.02;96990.53;6214814;23;20477;-74
2023/08/23 01:45:27;;;;;;;5.38;4.90;;;;;;;21.95;68.77;96984.41;6215114;23;20024;-73
2023/08/23 01:47:54;;;;;;;5.43;4.85;;;;;;;21.94;69.46;96993.44;6215155;23;20020;-73
2023/08/23 01:50:22;;;;;;;9.70;4.72;;;;;;;21.92;68.59;96998.19;6215063;23;20031;-74
2023/08/23 01:52:49;;;;;;;5.13;4.40;;;;;;;21.89;68.14;96996.81;6214802;23;20025;-73
2023/08/23 01:55:17;;;;;;;6.70;5.20;;;;;;;21.86;69.11;96993.84;6214862;23;20390;-74
2023/08/23 01:57:46;;;;;;;4.85;4.13;;;;;;;21.82;68.77;96993.53;6214978;23;20036;-74
2023/08/23 02:00:15;;;;;;;5.70;4.93;;;;;;;21.78;69.17;96990.56;6214830;23;20028;-74
2023/08/23 02:02:43;;;;;;;7.05;4.68;;;;;;;21.75;69.06;96983.06;6214204;23;20347;-73
2023/08/23 02:05:10;;;;;;;6.55;4.63;;;;;;;21.75;68.25;96985.72;6214946;23;20095;-73
2023/08/23 02:07:38;;;;;;;5.32;4.82;;;;;;;21.75;69.19;96987.59;6214763;23;20071;-73
2023/08/23 02:10:06;;;;;;;7.45;5.05;;;;;;;;;;6214318;23;20536;-74
2023/08/23 02:12:33;;;;;;;10.63;4.75;;;;;;;21.71;69.66;96986.47;6213993;23;20020;-73
2023/08/23 02:15:02;;;;;;;6.57;4.93;;;;;;;21.68;69.48;96985.09;6214800;23;20028;-73
2023/08/23 02:17:30;;;;;;;4.82;4.43;;;;;;;21.65;69.58;96977.63;6214216;23;20016;-73
2023/08/23 02:19:57;;;;;;;6.18;4.70;;;;;;;21.60;68.91;96978.38;6214602;23;20024;-73
2023/08/23 02:22:25;;;;;;;6.20;4.97;;;;;;;21.57;70.00;96978.03;6216934;23;20093;-73
2023/08/23 02:24:52;;;;;;;6.75;5.35;;;;;;;21.54;70.00;96971.38;6224709;23;20020;-73
2023/08/23 02:27:20;;;;;;;5.80;4.63;;;;;;;21.50;70.73;96980.06;6214970;23;20020;-73
2023/08/23 02:29:47;;;;;;;6.45;4.65;;;;;;;21.48;70.62;96980.28;6214677;23;20083;-73
2023/08/23 02:32:16;;;;;;;5.93;4.65;;;;;;;21.47;71.02;96993.78;6214296;23;20028;-73
2023/08/23 02:34:44;;;;;;;6.28;4.70;;;;;;;21.45;70.30;96990.56;6214586;23;20020;-73
2023/08/23 02:37:11;;;;;;;7.25;4.72;;;;;;;21.43;70.92;96987.34;6214508;23;20020;-73
2023/08/23 02:39:39;;;;;;;11.45;5.63;;;;;;;21.42;70.59;96988.41;6214105;23;20564;-73
2023/08/23 02:42:07;;;;;;;6.97;5.40;;;;;;;21.40;71.70;96992.06;6214123;23;20024;-73
2023/08/23 02:44:35;;;;;;;5.25;4.40;;;;;;;21.42;71.08;96993.72;6214197;23;20025;-73
2023/08/23 02:47:02;;;;;;;9.55;4.97;;;;;;;21.38;71.02;96991.53;6214462;23;20020;-73
2023/08/23 02:49:31;;;;;;;9.65;5.28;;;;;;;21.36;70.50;96998.94;6214002;23;20040;-73
2023/08/23 02:51:59;;;;;;;7.90;5.38;;;;;;;21.37;71.95;96995.22;6213696;23;20025;-73
2023/08/23 02:54:26;;;;;;;6.80;5.40;;;;;;;21.44;71.17;96999.59;6214436;23;20032;-73
2023/08/23 02:56:54;;;;;;;6.60;4.90;;;;;;;21.44;70.58;96984.47;6214888;23;20020;-73
2023/08/23 02:59:22;;;;;;;5.68;5.18;;;;;;;21.43;70.30;96990.00;6214455;23;20071;-73
2023/08/23 03:01:49;;;;;;;6.88;4.40;;;;;;;21.37;69.97;96984.59;6213967;23;20025;-73
2023/08/23 03:04:17;;;;;;;6.22;4.95;;;;;;;21.34;70.21;96986.91;6214551;23;20087;-73
2023/08/23 03:06:46;;;;;;;6.32;4.75;;;;;;;21.29;70.71;96987.66;6214000;23;20336;-73
2023/08/23 03:09:13;;;;;;;6.30;5.07;;;;;;;21.27;71.82;96984.44;6214288;23;20025;-73
2023/08/23 03:11:41;;;;;;;6.55;4.97;;;;;;;21.25;70.89;96983.06;6213936;23;20025;-73
2023/08/23 03:14:08;;;;;;;5.70;5.00;;;;;;;21.22;70.61;96987.00;6213553;23;20470;-73
2023/08/23 03:16:36;;;;;;;6.30;4.88;;;;;;;21.18;70.12;96994.63;6214110;23;20051;-73
2023/08/23 03:19:04;;;;;;;4.50;3.88;;;;;;;21.15;69.59;96987.16;6214184;23;20028;-73
2023/08/23 03:21:31;;;;;;;5.28;4.70;;;;;;;21.15;69.73;96986.38;6214135;23;20024;-73
2023/08/23 03:24:00;;;;;;;7.35;4.70;;;;;;;21.11;70.51;96985.22;6213608;23;20025;-73
2023/08/23 03:26:28;;;;;;;7.65;5.53;;;;;;;21.06;70.27;96987.81;6214342;23;20020;-73
2023/08/23 03:28:55;;;;;;;7.70;5.38;;;;;;;21.01;70.86;96982.41;6214247;23;20074;-73
2023/08/23 03:31:23;;;;;;;5.25;4.65;;;;;;;20.96;70.14;96978.59;6229265;23;20051;-73
2023/08/23 03:33:50;;;;;;;6.93;4.85;;;;;;;20.90;70.69;96974.28;6233718;23;20032;-73
2023/08/23 03:36:18;;;;;;;7.00;4.78;;;;;;;20.88;71.45;96968.41;6216057;23;20021;-73
2023/08/23 03:38:46;;;;;;;5.40;4.70;;;;;;;20.83;70.79;96970.94;6213802;23;20293;-72
2023/08/23 03:41:15;;;;;;;7.07;4.40;;;;;;;20.81;71.14;96969.59;6213882;23;20075;-73
2023/08/23 03:43:42;;;;;;;8.45;5.32;;;;;;;20.78;71.47;96965.56;6214014;23;20059;-73
2023/08/23 03:46:10;;;;;;;13.05;5.13;;;;;;;20.74;71.60;96967.09;6214167;23;20020;-73
2023/08/23 03:48:38;;;;;;;10.52;5.53;;;;;;;20.72;71.96;96971.81;6214066;23;20091;-73
2023/08/23 03:51:05;;;;;;;6.18;5.57;;;;;;;20.68;72.63;96975.97;6214017;23;20406;-73
2023/08/23 03:53:33;;;;;;;6.85;5.18;;;;;;;20.66;72.68;96972.75;6213794;23;20024;-73
2023/08/23 03:56:00;;;;;;;7.03;5.00;;;;;;;20.62;71.90;96983.03;6213990;23;20071;-73
2023/08/23 03:58:29;;;;;;;8.75;5.30;;;;;;;20.60;71.54;96979.00;6213739;23;20029;-73
2023/08/23 04:00:57;;;;;;;7.55;5.43;;;;;;;20.57;72.11;96980.28;6213646;23;20466;-73
2023/08/23 04:03:24;;;;;;;9.55;5.13;;;;;;;20.57;71.80;96982.94;6213718;23;20021;-73
2023/08/23 04:05:52;;;;;;;5.93;5.00;;;;;;;20.55;71.66;96977.84;6213985;23;20023;-73
2023/08/23 04:08:20;;;;;;;6.03;4.90;;;;;;;20.53;71.64;96985.22;6214043;23;20409;-73
2023/08/23 04:10:48;;;;;;;6.95;5.55;;;;;;;20.52;71.89;96980.16;6213567;23;20463;-73
2023/08/23 04:13:16;;;;;;;9.45;5.68;;;;;;;20.48;72.36;96971.06;6213592;23;20025;-73
2023/08/23 04:15:45;;;;;;;6.00;5.00;;;;;;;20.45;72.01;96967.06;6214007;23;20024;-72
2023/08/23 04:18:13;;;;;;;7.72;5.90;;;;;;;20.41;72.40;96965.91;6214134;23;20075;-73
2023/08/23 04:20:41;;;;;;;7.25;5.95;;;;;;;20.38;73.19;96969.03;6213854;23;20024;-73
2023/08/23 04:23:09;;;;;;;6.97;5.85;;;;;;;20.37;73.01;96965.56;6213285;23;20020;-73
2023/08/23 04:25:36;;;;;;;8.80;5.72;;;;;;;20.39;73.58;96957.38;6214050;23;20032;-73
2023/08/23 04:28:05;;;;;;;7.68;5.43;;;;;;;20.38;72.97;96958.44;6213782;23;20059;-73
2023/08/23 04:30:32;;;;;;;6.18;5.57;;;;;;;20.38;73.29;96955.78;6213865;23;20489;-72
2023/08/23 04:33:01;;;;;;;9.57;5.43;;;;;;;20.39;73.05;96967.97;6213316;23;20024;-73
2023/08/23 04:35:29;;;;;;;8.98;5.20;;;;;;;20.40;72.60;96969.59;6214003;23;20020;-73
2023/08/23 04:37:57;;;;;;;9.68;5.28;;;;;;;20.43;73.01;96965.69;6215324;23;20017;-73
2023/08/23 04:40:24;;;;;;;5.70;5.20;;;;;;;20.47;72.44;96972.91;6218404;23;20024;-73
2023/08/23 04:42:52;;;;;;;9.25;6.07;;;;;;;20.50;73.39;96969.78;6215025;23;20031;-73
2023/08/23 04:45:19;;;;;;;5.85;5.25;;;;;;;20.56;73.00;96979.44;6215275;23;20089;-73
2023/08/23 04:47:47;;;;;;;9.02;5.78;;;;;;;20.63;73.24;96981.19;6215708;23;20020;-72
2023/08/23 04:50:16;;;;;;;7.80;5.32;;;;;;;20.69;72.77;96982.91;6215546;23;20025;-72
2023/08/23 04:52:44;;;;;;;10.80;5.90;;;;;;;20.73;72.22;96992.78;6215538;23;20090;-72
2023/08/23 04:55:13;;;;;;;7.47;5.20;;;;;;;20.78;71.83;96994.72;6215162;23;20024;-72
2023/08/23 04:57:41;;;;;;;9.88;5.35;;;;;;;20.82;72.36;96998.53;6215144;23;20017;-72
2023/08/23 05:00:10;;;;;;;6.20;5.45;;;;;;;20.86;72.53;96994.34;6215460;23;20029;-72
2023/08/23 05:02:37;;;;;;;5.85;5.03;;;;;;;20.90;71.65;96992.84;6214538;23;20466;-72
2023/08/23 05:05:06;;;;;;;7.07;5.10;;;;;;;20.94;71.17;96995.81;6215146;23;20071;-72
2023/08/23 05:07:36;;;;;;;6.85;5.63;;;;;;;20.94;71.13;96999.25;6213264;23;20462;-71
2023/08/23 05:10:04;;;;;;;6.90;4.97;;;;;;;20.90;70.97;96994.66;6214404;23;20405;-72
2023/08/23 05:12:32;;;;;;;13.38;5.47;;;;;;;20.89;70.83;96999.19;6214893;23;20020;-72
2023/08/23 05:15:00;;;;;;;8.30;5.00;;;;;;;20.89;70.96;97009.78;6214932;23;20024;-73
2023/08/23 05:17:28;;;;;;;9.88;5.90;;;;;;;20.90;71.06;96998.16;6215355;23;20024;-72
2023/08/23 05:19:55;;;;;;;7.60;5.40;;;;;;;20.93;71.52;97002.16;6215341;23;20059;-72
2023/08/23 05:22:23;;;;;;;8.35;5.38;;;;;;;20.95;71.39;97006.19;6214907;23;20020;-72
2023/08/23 05:24:52;;;;;;;6.38;5.15;;;;;;;20.99;71.41;96999.38;6216246;23;20025;-73
2023/08/23 05:27:19;;;;;;;10.25;5.50;;;;;;;21.03;71.67;97006.84;6235561;23;20028;-73
2023/08/23 05:29:47;;;;;;;10.13;5.57;;;;;;;21.05;71.46;96996.78;6238244;23;20116;-72
2023/08/23 05:32:15;;;;;;;8.85;6.97;;;;;;;21.05;72.16;97002.91;6234784;23;20016;-72
2023/08/23 05:34:43;;;;;;;8.98;6.07;;;;;;;21.05;71.45;96999.44;6236246;23;20075;-71
2023/08/23 05:37:10;;;;;;;6.68;5.65;;;;;;;21.06;71.47;97003.72;6237066;23;20017;-71
2023/08/23 05:39:38;;;;;;;7.15;5.50;;;;;;;21.07;71.35;97007.97;6230215;23;20074;-72
2023/08/23 05:42:08;;;;;;;12.77;6.72;;;;;;;21.10;72.33;97020.75;6215477;23;20029;-72
2023/08/23 05:44:35;;;;;;;8.75;5.63;;;;;;;21.14;71.86;97009.44;6215255;23;20025;-72
2023/08/23 05:47:03;;;;;;;6.65;5.47;;;;;;;21.22;71.27;97016.19;6214877;23;20021;-72
2023/08/23 05:49:30;;;;;;;8.10;5.05;;;;;;;21.27;70.35;97026.88;6217110;23;20078;-72
2023/08/23 05:51:58;;;;;;;10.10;5.55;;;;;;;21.30;70.92;97028.28;6214800;23;20024;-72
2023/08/23 05:54:25;;;;;;;8.85;6.03;;;;;;;21.34;71.27;97032.84;6214926;23;20078;-72
2023/08/23 05:56:53;;;;;;;9.10;6.35;;;;;;;21.42;71.48;97038.84;6214985;23;20335;-72
2023/08/23 05:59:22;;;;;;;8.98;5.43;;;;;;;21.46;70.79;97045.28;6215215;23;20504;-71
2023/08/23 06:01:50;;;;;;;8.07;6.03;;;;;;;21.50;70.59;97035.78;6214683;23;20098;-71
2023/08/23 06:04:17;;;;;;;10.30;6.50;;;;;;;21.54;69.95;97027.09;6214435;23;20048;-71
2023/08/23 06:06:45;;;;;;;13.13;6.35;;;;;;;21.58;70.14;97030.06;6215120;23;20016;-72
2023/08/23 06:09:12;;;;;;;9.60;6.05;;;;;;;21.60;70.11;97030.63;6212586;23;20028;-72
2023/08/23 06:11:40;;;;;;;8.07;5.72;;;;;;;21.62;71.28;97033.84;6212980;23;20078;-72
2023/08/23 06:14:18;;;;;;;6.35;5.47;;;;;;;21.69;70.02;97034.50;6210346;23;20056;-71
2023/08/23 06:16:47;;;;;;;8.45;6.43;;;;;;;21.76;70.36;97037.78;6230045;23;20410;-71
2023/08/23 06:19:14;;;;;;;5.93;5.32;;;;;;;21.80;69.45;97041.59;6224973;23;20389;-72
2023/08/23 06:21:42;;;;;;;8.15;6.93;;;;;;;21.89;69.44;97035.88;6215111;23;20021;-72
2023/08/23 06:24:11;;;;;;;6.25;5.65;;;;;;;21.96;69.45;97026.66;6213910;23;20056;-71
2023/08/23 06:26:38;;;;;;;10.10;6.53;;;;;;;22.03;70.19;97026.50;6214182;23;20024;-71
2023/08/23 06:29:06;;;;;;;7.93;5.68;;;;;;;22.11;69.31;97023.44;6214442;23;20091;-71
2023/08/23 06:31:33;;;;;;;8.70;5.90;;;;;;;22.21;69.57;97020.91;6214171;23;20021;-71
2023/08/23 06:34:02;;;;;;;8.48;6.18;;;;;;;22.32;69.37;97021.84;6214241;23;20020;-72
2023/08/23 06:36:30;;;;;;;8.90;6.95;;;;;;;22.40;69.07;97029.41;6210774;23;20025;-72
2023/08/23 06:38:58;;;;;;;12.13;7.00;;;;;;;22.46;69.21;97017.00;6206070;23;20024;-71
2023/08/23 06:41:25;;;;;;;8.40;6.10;;;;;;;22.53;69.07;97019.47;6214249;23;20020;-71
2023/08/23 06:43:59;;;;;;;6.68;5.60;;;;;;;22.61;68.78;97016.38;6214210;23;20028;-71
2023/08/23 06:46:27;;;;;;;8.93;6.40;;;;;;;22.69;68.32;97013.25;6213486;23;20082;-70
2023/08/23 06:48:55;;;;;;;7.55;6.22;;;;;;;22.76;68.19;97021.03;6214697;23;20048;-71
2023/08/23 06:51:27;;;;;;;7.00;5.50;;;;;;;22.87;68.33;97014.81;6214262;23;20103;-71
2023/08/23 06:53:55;;;;;;;9.32;7.22;;;;;;;22.96;67.57;97023.94;6222167;23;20020;-71
2023/08/23 06:56:23;;;;;;;11.93;7.25;;;;;;;23.03;67.76;97026.44;6216532;23;20028;-71
2023/08/23 06:58:50;;;;;;;7.57;6.88;;;;;;;23.10;68.98;97027.00;6214414;23;20028;-71
2023/08/23 07:01:18;;;;;;;11.57;7.18;;;;;;;23.18;67.96;97039.06;6214281;23;20418;-71
2023/08/23 07:03:45;;;;;;;10.05;6.63;;;;;;;23.26;68.18;97035.94;6213304;23;20026;-71
2023/08/23 07:06:15;;;;;;;11.88;7.43;;;;;;;23.35;66.75;97031.78;6214291;23;20044;-71
2023/08/23 07:08:44;;;;;;;11.00;7.65;;;;;;;23.42;66.81;97034.25;6214162;23;20090;-71
2023/08/23 07:11:12;;;;;;;10.80;7.68;;;;;;;23.50;66.77;97035.63;6213318;23;20051;-71
2023/08/23 07:13:39;;;;;;;9.02;6.93;;;;;;;23.58;66.77;97032.50;6213413;23;20082;-71
2023/08/23 07:16:07;;;;;;;11.02;6.95;;;;;;;23.64;66.65;97026.16;6213490;23;20028;-71
2023/08/23 07:18:35;;;;;;;8.98;7.25;;;;;;;23.76;66.38;97034.00;6214002;23;20021;-70
2023/08/23 07:21:03;;;;;;;10.68;7.07;;;;;;;23.88;65.83;97036.44;6214053;23;20090;-70
2023/08/23 07:23:30;;;;;;;11.85;7.55;;;;;;;23.97;65.20;97034.94;6213613;23;20031;-70
2023/08/23 07:26:02;;;;;;;14.43;7.40;;;;;;;24.07;65.51;97034.97;6213536;23;20021;-70
2023/08/23 07:28:30;;;;;;;13.32;7.70;;;;;;;24.15;64.53;97025.72;6214008;23;20024;-71
2023/08/23 07:30:58;;;;;;;11.15;7.10;;;;;;;24.23;64.66;97023.34;6212970;23;20025;-70
2023/08/23 07:33:26;;;;;;;9.70;6.82;;;;;;;24.31;64.27;97024.72;6213581;23;20351;-70
2023/08/23 07:35:57;;;;;;;12.07;7.05;;;;;;;24.40;63.34;97028.50;6214132;23;20020;-70
2023/08/23 07:38:26;;;;;;;11.23;6.65;;;;;;;24.51;63.42;97028.56;6213688;23;20091;-70
2023/08/23 07:40:57;;;;;;;10.00;7.82;;;;;;;24.61;62.68;97025.94;6213798;23;20021;-70
2023/08/23 07:43:27;;;;;;;10.70;7.28;;;;;;;24.70;62.28;97028.91;6213221;23;20052;-70
2023/08/23 07:45:54;;;;;;;10.40;5.72;;;;;;;24.80;63.02;97036.97;6212987;23;20025;-70
2023/08/23 07:48:22;;;;;;;11.82;6.90;;;;;;;24.91;61.75;97033.25;6213701;23;20083;-70
2023/08/23 07:50:50;;;;;;;11.20;6.20;;;;;;;25.04;61.18;97043.41;6213021;23;20530;-70
2023/08/23 07:53:18;;;;;;;11.60;6.10;;;;;;;25.15;60.88;97048.78;6213327;23;20055;-70
2023/08/23 07:55:46;;;;;;;6.65;5.40;;;;;;;25.24;59.78;97032.00;6213392;23;20025;-70
2023/08/23 07:58:14;;;;;;;9.45;6.15;;;;;;;25.35;59.69;97037.34;6213599;23;20458;-70
2023/08/23 08:00:47;;;;;;;8.52;5.53;;;;;;;25.43;59.79;97040.31;6224412;23;20025;-85
2023/08/23 08:03:15;;;;;;;7.90;5.53;;;;;;;25.54;59.38;97035.78;6242329;23;20005;-85
2023/08/23 08:05:42;;;;;;;9.90;5.68;;;;;;;25.66;59.22;97043.50;6242893;23;20017;-85
2023/08/23 08:08:11;;;;;;;5.93;4.90;;;;;;;25.78;58.43;97041.38;6242285;23;20012;-84
2023/08/23 08:10:39;;;;;;;13.25;5.88;;;;;;;25.91;57.94;97037.38;6226705;23;20070;-83
2023/08/23 08:13:06;;;;;;;8.70;5.85;;;;;;;26.02;57.80;97040.81;6221330;23;20028;-83
2023/08/23 08:15:36;;;;;;;7.00;5.75;;;;;;;26.13;59.09;97039.75;6234715;23;20039;-83
2023/08/23 08:18:05;;;;;;;8.10;5.88;;;;;;;26.28;57.72;97045.06;6238167;23;20078;-85
2023/08/23 08:20:33;;;;;;;7.95;6.40;;;;;;;26.44;57.96;97036.97;6234196;23;20024;-83
2023/08/23 08:23:01;;;;;;;7.13;6.43;;;;;;;26.58;57.33;97037.22;6224210;23;20100;-85
2023/08/23 08:25:28;;;;;;;11.25;6.13;;;;;;;26.70;58.44;97046.53;6220277;23;20020;-85
2023/08/23 08:27:56;;;;;;;8.45;6.15;;;;;;;26.83;57.10;97041.63;6219712;23;20025;-84
2023/08/23 08:30:24;;;;;;;8.98;5.72;;;;;;;27.00;57.25;97038.59;6219935;23;20074;-87
2023/08/23 08:32:52;;;;;;;6.50;4.90;;;;;;;27.15;55.90;97027.00;6220136;23;20086;-85
2023/08/23 08:35:21;;;;;;;6.97;5.18;;;;;;;27.26;54.75;97032.03;6220319;23;20012;-86
2023/08/23 08:37:49;;;;;;;7.65;5.22;;;;;;;27.43;55.41;97028.97;6218417;23;20012;-83
2023/08/23 08:40:18;;;;;;;5.32;4.90;;;;;;;27.56;54.68;97035.56;6218341;23;20016;-84
2023/08/23 08:42:46;;;;;;;12.32;6.05;;;;;;;27.66;54.24;97040.03;6218327;23;20086;-83
2023/08/23 08:45:14;;;;;;;5.80;5.10;;;;;;;27.66;53.92;97035.50;6218310;23;20021;-84
2023/08/23 08:47:42;;;;;;;6.70;4.53;;;;;;;27.58;53.88;97037.97;6219710;23;20044;-85
2023/08/23 08:50:10;;;;;;;8.25;4.68;;;;;;;27.49;55.64;97041.25;6219382;23;20082;-84
2023/08/23 08:52:42;;;;;;;5.95;4.85;;;;;;;27.43;54.28;97045.03;6219788;23;20075;-84
2023/08/23 08:55:11;;;;;;;8.13;4.45;;;;;;;27.36;54.08;97041.09;6218064;23;20028;-83
2023/08/23 08:57:40;;;;;;;5.53;4.70;;;;;;;27.29;53.63;97036.06;6218188;23;20470;-83
2023/08/23 09:00:10;;;;;;;5.53;4.20;;;;;;;27.23;53.67;97042.53;6221933;23;20012;-83
2023/08/23 09:02:39;;;;;;;5.57;4.20;;;;;;;27.17;53.03;97043.59;6227892;23;20086;-84
2023/08/23 09:05:08;;;;;;;4.95;3.70;;;;;;;27.10;53.41;97044.69;6223909;23;20035;-86
2023/08/23 09:07:36;;;;;;;9.80;4.22;;;;;;;27.06;54.39;97040.97;6222778;23;20025;-83
2023/08/23 09:10:05;;;;;;;8.73;4.45;;;;;;;27.01;53.17;97041.00;6228806;23;20044;-83
2023/08/23 09:12:33;;;;;;;5.95;3.80;;;;;;;27.00;53.76;97039.41;6222416;23;20028;-83
2023/08/23 09:15:04;;;;;;;7.63;4.57;;;;;;;27.07;52.96;97045.25;6221229;23;20020;-84
2023/08/23 09:17:34;;;;;;;6.35;4.47;;;;;;;27.19;52.81;97046.78;6221286;23;20490;-85
2023/08/23 09:20:05;;;;;;;5.75;4.40;;;;;;;27.35;52.24;97045.63;6220511;23;20079;-83
2023/08/23 09:22:33;;;;;;;4.43;3.65;;;;;;;27.52;51.88;97038.00;6220068;23;20024;-84
2023/08/23 09:25:01;;;;;;;7.32;3.80;;;;;;;27.70;51.44;97046.44;6220287;23;20027;-82
2023/08/23 09:27:30;;;;;;;6.35;4.10;;;;;;;27.86;51.17;97050.63;6220867;23;20017;-84
2023/08/23 09:30:18;;;;;;;4.68;4.28;;;;;;;28.02;50.77;97045.91;6220341;23;20020;-84
2023/08/23 09:32:45;;;;;;;6.72;4.07;;;;;;;28.14;50.80;97045.50;6220876;23;20355;-84
2023/08/23 09:35:15;;;;;;;15.30;4.65;;;;;;;28.27;50.94;97044.03;6221265;23;20032;-85
2023/08/23 09:37:44;;;;;;;5.43;4.10;;;;;;;28.43;52.16;97048.16;6220716;23;20031;-82
2023/08/23 09:40:19;;;;;;;5.00;4.53;;;;;;;28.59;49.04;97046.13;6219319;23;20020;-83
2023/08/23 09:42:49;;;;;;;5.70;4.10;;;;;;;28.78;49.47;97048.06;6219033;23;20020;-84
2023/08/23 09:45:19;;;;;;;6.18;4.60;;;;;;;28.98;48.50;97053.13;6221614;23;20087;-84
2023/08/23 09:47:51;;;;;;;6.03;4.40;;;;;;;29.09;48.33;97049.25;6220357;23;20025;-85
2023/08/23 09:50:20;;;;;;;6.65;4.30;;;;;;;29.20;48.38;97052.59;6218301;23;20016;-87
2023/08/23 09:52:52;;;;;;;7.45;4.43;;;;;;;29.28;48.08;97056.50;6219911;23;20025;-84
2023/08/23 09:55:20;;;;;;;6.38;3.75;;;;;;;29.33;47.64;97048.38;6221988;23;20028;-84
2023/08/23 09:57:49;;;;;;;6.05;4.35;;;;;;;29.45;48.55;97056.75;6220685;23;20083;-84
2023/08/23 10:00:18;;;;;;;6.53;4.00;;;;;;;29.56;48.27;97055.53;6220336;23;20099;-85
2023/08/23 10:02:46;;;;;;;5.03;4.35;;;;;;;29.67;47.86;97063.41;6222893;22;20078;-80
2023/08/23 10:05:14;;;;;;;5.28;3.90;;;;;;;29.72;47.26;97049.94;6246447;23;20090;-79
2023/08/23 10:07:43;;;;;;;5.72;4.43;;;;;;;29.78;47.42;97049.56;6248112;23;20095;-79
2023/08/23 10:10:17;;;;;;;11.60;4.25;;;;;;;29.84;47.11;97046.78;6260375;22;20012;-80
2023/08/23 10:13:04;;;;;;;5.75;4.00;;;;;;;29.88;46.04;97037.81;6267317;22;20039;-80
2023/08/23 10:15:35;;;;;;;4.93;4.20;;;;;;;29.87;46.09;97036.25;6247436;23;20024;-80
2023/08/23 10:18:05;;;;;;;8.43;4.35;;;;;;;29.90;47.13;97030.25;6248213;23;20358;-80
2023/08/23 10:20:34;;;;;;;8.60;4.53;;;;;;;29.96;47.80;97026.38;6250829;23;20036;-78
2023/08/23 10:23:11;;;;;;;5.78;3.92;;;;;;;30.02;45.77;97026.28;6246733;22;20082;-80
2023/08/23 10:25:38;;;;;;;4.75;4.13;;;;;;;30.04;45.50;97018.72;6244525;23;20024;-80
2023/08/23 10:28:08;;;;;;;6.35;4.03;;;;;;;30.08;45.66;97019.72;6244945;23;20474;-80
2023/08/23 10:30:40;;;;;;;6.03;4.03;;;;;;;30.18;45.10;97019.53;6243353;23;20082;-81
2023/08/23 10:33:09;;;;;;;7.28;4.03;;;;;;;30.25;45.07;97014.53;6243500;22;20042;-81
2023/08/23 10:35:38;;;;;;;4.70;3.95;;;;;;;30.35;45.37;97009.00;6245265;23;20027;-79
2023/08/23 10:38:07;;;;;;;7.03;4.03;;;;;;;30.46;45.14;97003.38;6244895;23;20019;-80
2023/08/23 10:40:36;;;;;;;6.63;4.72;;;;;;;30.52;45.88;97008.38;6246656;23;20070;-80
2023/08/23 10:43:09;;;;;;;8.20;4.30;;;;;;;30.57;45.02;97002.91;6247442;22;20343;-79
2023/08/23 10:45:56;;;;;;;4.90;4.03;;;;;;;30.65;44.19;97001.38;6247144;23;20484;-80
2023/08/23 10:48:24;;;;;;;4.35;3.95;;;;;;;30.60;43.97;96996.09;6247657;23;20032;-80
2023/08/23 10:50:54;;;;;;;6.25;4.55;;;;;;;30.54;44.80;96994.63;6247016;23;20032;-80
2023/08/23 10:53:22;;;;;;;5.38;3.92;;;;;;;30.56;44.67;96992.41;6246723;22;20027;-80
2023/08/23 10:55:54;;;;;;;6.78;3.92;;;;;;;30.68;43.77;96998.09;6246954;23;20031;-80
2023/08/23 10:58:22;;;;;;;4.65;3.58;;;;;;;30.75;45.00;97005.75;6249980;23;20466;-80
2023/08/23 11:00:53;;;;;;;6.88;4.38;;;;;;;30.72;44.60;96999.09;6255153;23;20019;-78
2023/08/23 11:03:24;;;;;;;5.60;3.90;;;;;;;30.66;43.95;97005.69;6263109;22;20039;-80
2023/08/23 11:05:52;;;;;;;11.27;4.00;;;;;;;30.52;43.78;96996.81;6264051;23;20040;-80
2023/08/23 11:08:20;;;;;;;5.50;4.00;;;;;;;30.37;45.22;96996.03;6271424;22;20008;-79
2023/08/23 11:10:48;;;;;;;5.05;3.95;;;;;;;30.25;45.24;97006.47;6273702;22;20008;-79
2023/08/23 11:13:16;;;;;;;5.00;4.00;;;;;;;30.14;46.97;97002.38;6269890;22;20023;-80
2023/08/23 11:15:44;;;;;;;6.72;4.10;;;;;;;30.04;44.69;97008.75;6268093;23;20031;-80
2023/08/23 11:18:12;;;;;;;16.35;9.82;;;;;;;29.98;45.29;97008.06;6268313;23;20492;-80
2023/08/23 11:20:42;;;;;;;15.82;8.13;;;;;;;30.01;45.35;97005.88;6269109;23;20035;-80
2023/08/23 11:23:10;;;;;;;9.25;5.47;;;;;;;30.03;45.21;97001.78;6269593;22;20024;-80
2023/08/23 11:25:38;;;;;;;4.47;3.60;;;;;;;30.08;45.47;97003.56;6269236;23;20004;-79
2023/08/23 11:28:07;;;;;;;5.57;3.60;;;;;;;30.16;45.10;97008.28;6268014;23;20024;-79
2023/08/23 11:30:35;;;;;;;7.38;4.15;;;;;;;30.24;45.25;97004.88;6268919;23;20076;-80
2023/08/23 11:33:04;;;;;;;7.22;3.95;;;;;;;30.32;44.67;96990.75;6270523;22;20035;-80
2023/08/23 11:35:32;;;;;;;5.93;3.55;;;;;;;30.39;45.01;97004.63;6268293;23;20024;-80
2023/08/23 11:38:03;;;;;;;5.57;3.88;;;;;;;30.44;44.34;96998.34;6268357;23;20039;-80